createdAt,value
2019-05-15T00:04:15.162Z,7.57
2019-05-15T00:09:19.064Z,8.87
2019-05-15T00:14:20.686Z,8.97
2019-05-15T00:19:22.181Z,12.53
2019-05-15T00:24:23.772Z,12.27
2019-05-15T00:29:25.383Z,9.20
2019-05-15T00:34:28.572Z,9.20
2019-05-15T00:39:30.241Z,8.27
2019-05-15T00:44:31.889Z,10.73
2019-05-15T00:49:33.367Z,7.43
2019-05-15T00:54:34.966Z,7.20
2019-05-15T00:59:38.819Z,8.50
2019-05-15T01:04:39.964Z,7.10
2019-05-15T01:09:41.478Z,7.13
2019-05-15T01:14:43.160Z,7.70
2019-05-15T01:19:44.854Z,6.13
2019-05-15T01:24:48.497Z,6.90
2019-05-15T01:29:49.942Z,5.73
2019-05-15T01:34:51.880Z,5.40
2019-05-15T01:39:53.365Z,4.73
2019-05-15T01:44:54.842Z,5.77
2019-05-15T01:49:58.301Z,5.17
2019-05-15T01:55:01.110Z,5.03
2019-05-15T02:00:05.551Z,5.33
2019-05-15T02:05:09.093Z,5.43
2019-05-15T02:10:11.182Z,5.90
2019-05-15T02:15:13.178Z,6.53
2019-05-15T02:20:15.260Z,6.90
2019-05-15T02:25:18.537Z,6.03
2019-05-15T02:30:28.293Z,6.87
2019-05-15T02:35:23.608Z,6.67
2019-05-15T02:40:25.591Z,6.63
2019-05-15T02:45:30.097Z,6.43
2019-05-15T02:50:30.961Z,7.10
2019-05-15T02:55:32.445Z,7.93
2019-05-15T03:00:46.085Z,6.30
2019-05-15T03:05:40.871Z,7.73
2019-05-15T03:10:41.242Z,7.30
2019-05-15T03:15:43.004Z,7.83
2019-05-15T03:20:45.005Z,6.80
2019-05-15T03:25:49.050Z,10.37
2019-05-15T03:31:15.619Z,10.83
2019-05-15T03:35:55.012Z,11.93
2019-05-15T03:40:59.637Z,10.30
2019-05-15T03:46:01.720Z,11.33
2019-05-15T03:51:04.708Z,10.67
2019-05-15T03:56:09.391Z,11.37
2019-05-15T04:01:28.463Z,11.57
2019-05-15T04:06:13.581Z,12.57
2019-05-15T04:11:15.281Z,11.80
2019-05-15T04:16:19.114Z,11.37
2019-05-15T04:21:20.796Z,12.97
2019-05-15T04:26:28.402Z,13.30
2019-05-15T04:31:35.441Z,12.67
2019-05-15T04:36:32.457Z,13.17
2019-05-15T04:41:33.928Z,13.93
2019-05-15T04:46:38.968Z,14.77
2019-05-15T04:51:39.383Z,14.53
2019-05-15T04:56:41.143Z,14.10
2019-05-15T05:01:42.620Z,13.10
2019-05-15T05:06:44.619Z,12.80
2019-05-15T05:11:48.766Z,14.20
2019-05-15T05:16:49.671Z,13.93
2019-05-15T05:21:51.324Z,14.40
2019-05-15T05:26:53.007Z,14.27
2019-05-15T05:31:54.879Z,12.60
2019-05-15T05:36:58.959Z,13.90
2019-05-15T05:42:00.066Z,14.27
2019-05-15T05:47:01.554Z,11.90
2019-05-15T05:52:03.029Z,14.17
2019-05-15T05:57:04.499Z,11.63
2019-05-15T06:02:08.206Z,12.10
2019-05-15T06:07:14.143Z,11.10
2019-05-15T06:12:12.967Z,12.40
2019-05-15T06:17:14.454Z,12.57
2019-05-15T06:22:16.144Z,11.83
2019-05-15T06:27:19.829Z,14.13
2019-05-15T06:32:21.308Z,14.63
2019-05-15T06:37:22.796Z,14.97
2019-05-15T06:42:24.369Z,16.43
2019-05-15T06:47:28.338Z,17.23
2019-05-15T06:52:29.497Z,17.10
2019-05-15T06:57:31.093Z,16.50
2019-05-15T07:02:32.659Z,15.80
2019-05-15T07:07:34.356Z,15.30
2019-05-15T07:12:36.037Z,14.07
2019-05-15T07:17:39.295Z,14.93
2019-05-15T07:22:40.927Z,15.03
2019-05-15T07:27:43.624Z,14.17
2019-05-15T07:32:45.286Z,14.10
2019-05-15T07:37:47.903Z,14.33
2019-05-15T07:42:49.560Z,14.10
2019-05-15T07:47:51.142Z,12.73
2019-05-15T07:52:52.736Z,14.33
2019-05-15T07:57:54.308Z,14.53
2019-05-15T08:02:58.487Z,14.40
2019-05-15T08:07:59.595Z,15.93
2019-05-15T08:13:01.074Z,16.57
2019-05-15T08:18:08.804Z,17.00
2019-05-15T08:23:08.346Z,17.17
2019-05-15T08:28:09.694Z,19.27
2019-05-15T08:33:11.432Z,17.87
2019-05-15T08:38:14.284Z,16.37
2019-05-15T08:43:18.346Z,15.53
2019-05-15T08:48:20.547Z,16.90
2019-05-15T08:53:22.234Z,17.33
2019-05-15T08:58:23.876Z,16.27
2019-05-15T09:03:25.359Z,18.00
2019-05-15T09:08:29.097Z,15.93
2019-05-15T09:13:30.361Z,18.20
2019-05-15T09:18:31.819Z,17.67
2019-05-15T09:23:33.303Z,16.40
2019-05-15T09:28:34.855Z,15.60
2019-05-15T09:33:38.760Z,15.20
2019-05-15T09:38:40.068Z,14.07
2019-05-15T09:43:42.413Z,14.57
2019-05-15T09:48:47.621Z,14.33
2019-05-15T09:53:48.393Z,12.80
2019-05-15T09:58:50.254Z,12.77
2019-05-15T10:03:51.779Z,12.70
2019-05-15T10:08:53.262Z,11.90
2019-05-15T10:13:54.732Z,10.77
2019-05-15T10:18:58.230Z,11.07
2019-05-15T10:23:59.708Z,10.60
2019-05-15T10:29:02.615Z,10.00
2019-05-15T10:34:04.644Z,9.37
2019-05-15T10:39:08.353Z,9.23
2019-05-15T10:44:10.115Z,10.27
2019-05-15T10:49:11.702Z,11.00
2019-05-15T10:54:13.288Z,13.50
2019-05-15T10:59:15.129Z,10.60
2019-05-15T11:04:18.125Z,10.00
2019-05-15T11:09:19.968Z,40.43
2019-05-15T11:14:21.431Z,12.40
2019-05-15T11:19:23.007Z,17.70
2019-05-15T11:24:24.490Z,12.33
2019-05-15T11:29:26.085Z,10.67
2019-05-15T11:34:28.999Z,10.63
2019-05-15T11:39:30.920Z,12.03
2019-05-15T11:44:33.780Z,11.00
2019-05-15T11:49:35.353Z,13.70
2019-05-15T11:54:38.525Z,12.97
2019-05-15T11:59:44.831Z,13.80
2019-05-15T12:04:43.930Z,14.90
2019-05-15T12:09:45.669Z,16.40
2019-05-15T12:14:49.491Z,15.10
2019-05-15T12:19:56.845Z,14.83
2019-05-15T12:24:54.747Z,15.80
2019-05-15T12:29:59.748Z,11.70
2019-05-15T12:35:00.198Z,11.57
2019-05-15T13:00:26.294Z,13.90
2019-05-15T13:05:29.076Z,15.10
2019-05-15T13:10:31.381Z,12.20
2019-05-15T13:15:33.345Z,13.13
2019-05-15T13:20:34.815Z,13.73
2019-05-15T13:25:38.965Z,13.20
2019-05-15T13:30:41.571Z,14.00
2019-05-15T13:35:45.651Z,14.43
2019-05-15T13:40:48.200Z,14.80
2019-05-15T13:45:50.030Z,14.50
2019-05-15T13:50:51.529Z,14.93
2019-05-15T13:55:53.006Z,12.03
2019-05-15T14:00:54.602Z,13.20
2019-05-15T14:05:58.129Z,16.73
2019-05-15T14:10:59.557Z,16.00
2019-05-15T14:16:01.284Z,16.97
2019-05-15T14:21:04.216Z,24.17
2019-05-15T14:26:18.074Z,34.30
2019-05-15T14:31:09.915Z,39.37
2019-05-15T14:36:11.463Z,30.70
2019-05-15T14:41:13.048Z,26.83
2019-05-15T14:46:14.941Z,24.63
2019-05-15T14:51:19.056Z,22.70
2019-05-15T14:56:19.806Z,20.50
2019-05-15T15:01:21.295Z,19.63
2019-05-15T15:06:22.801Z,20.63
2019-05-15T15:11:24.484Z,22.10
2019-05-15T15:16:26.029Z,23.87
2019-05-15T15:21:29.271Z,23.40
2019-05-15T15:26:30.888Z,22.10
2019-05-15T15:31:33.661Z,22.30
2019-05-15T15:36:35.251Z,22.30
2019-05-15T15:41:38.966Z,23.87
2019-05-15T15:46:40.869Z,23.20
2019-05-15T15:51:42.714Z,22.73
2019-05-15T15:56:44.307Z,21.60
2019-05-15T16:01:45.891Z,23.07
2019-05-15T16:06:48.283Z,24.77
2019-05-15T16:11:50.209Z,25.00
2019-05-15T16:16:52.007Z,25.77
2019-05-15T16:21:53.651Z,24.90
2019-05-15T16:26:55.470Z,24.23
2019-05-15T16:31:58.879Z,27.23
2019-05-15T16:37:00.658Z,20.57
2019-05-15T16:42:02.573Z,19.10
2019-05-15T16:47:04.278Z,16.23
2019-05-15T16:52:06.032Z,17.13
2019-05-15T16:57:09.998Z,20.80
2019-05-15T17:02:11.223Z,21.50
2019-05-15T17:07:12.734Z,21.83
2019-05-15T17:12:14.550Z,20.47
2019-05-15T17:17:18.321Z,20.07
2019-05-15T17:22:19.837Z,14.83
2019-05-15T17:27:21.589Z,19.83
2019-05-15T17:32:23.139Z,16.97
2019-05-15T17:37:24.851Z,20.17
2019-05-15T17:42:28.760Z,21.63
2019-05-15T17:47:30.059Z,19.33
2019-05-15T17:52:31.786Z,19.17
2019-05-15T17:57:33.676Z,18.47
2019-05-15T18:02:37.872Z,19.93
2019-05-15T18:07:39.201Z,20.77
2019-05-15T18:12:41.049Z,25.20
2019-05-15T18:17:42.971Z,25.33
2019-05-15T18:22:44.820Z,24.13
2019-05-15T18:27:48.061Z,23.60
2019-05-15T18:32:50.328Z,25.00
2019-05-15T18:37:51.928Z,26.83
2019-05-15T18:42:53.637Z,25.87
2019-05-15T18:47:55.457Z,25.77
2019-05-15T18:52:58.397Z,30.50
2019-05-15T18:58:00.619Z,29.37
2019-05-15T19:03:16.011Z,29.80
2019-05-15T19:08:08.293Z,30.70
2019-05-15T19:13:09.793Z,37.23
2019-05-15T19:18:11.860Z,32.63
2019-05-15T19:23:13.489Z,35.90
2019-05-15T19:28:15.154Z,40.87
2019-05-15T19:33:22.540Z,35.13
2019-05-15T19:38:20.449Z,35.80
2019-05-15T19:43:21.955Z,31.80
2019-05-15T19:48:23.480Z,36.43
2019-05-15T19:53:25.231Z,32.80
2019-05-15T19:58:28.663Z,35.30
2019-05-15T20:03:30.548Z,30.03
2019-05-15T20:08:32.728Z,35.20
2019-05-15T20:13:34.315Z,35.53
2019-05-15T20:18:35.901Z,35.40
2019-05-15T20:23:38.212Z,35.93
2019-05-15T20:28:39.959Z,41.17
2019-05-15T20:33:41.732Z,35.20
2019-05-15T20:38:43.312Z,42.37
2019-05-15T20:43:44.943Z,35.47
2019-05-15T20:48:48.600Z,34.87
2019-05-15T20:53:50.017Z,39.23
2019-05-15T20:58:52.595Z,36.63
2019-05-15T21:03:54.174Z,36.83
2019-05-15T21:08:57.779Z,33.50
2019-05-15T21:14:00.348Z,35.47
2019-05-15T21:19:02.217Z,37.40
2019-05-15T21:24:04.055Z,33.67
2019-05-15T21:29:07.820Z,35.37
2019-05-15T21:34:09.534Z,36.27
2019-05-15T21:39:11.430Z,34.80
2019-05-15T21:44:13.637Z,32.63
2019-05-15T21:49:15.422Z,31.83
2019-05-15T21:54:17.975Z,30.17
2019-05-15T21:59:19.898Z,27.13
2019-05-15T22:04:21.473Z,29.10
2019-05-15T22:09:23.778Z,29.10
2019-05-15T22:14:25.734Z,28.37
2019-05-15T22:19:30.273Z,34.50
2019-05-15T22:24:30.844Z,33.87
2019-05-15T22:29:32.374Z,36.33
2019-05-15T22:34:34.066Z,34.23
2019-05-15T22:39:35.559Z,34.33
2019-05-15T22:44:38.493Z,33.70
2019-05-15T22:49:40.230Z,36.20
2019-05-15T22:54:41.869Z,34.97
2019-05-15T22:59:43.398Z,34.13
2019-05-15T23:04:45.281Z,34.83
2019-05-15T23:09:48.851Z,32.60
2019-05-15T23:14:51.682Z,31.47
2019-05-15T23:19:53.159Z,29.57
2019-05-15T23:24:54.932Z,28.27
2019-05-15T23:29:58.187Z,28.90
2019-05-15T23:34:59.806Z,29.40
2019-05-15T23:40:03.449Z,31.37
2019-05-15T23:45:05.729Z,34.10
2019-05-15T23:50:07.521Z,37.47
2019-05-15T23:55:09.456Z,35.03
